Time;durP1;ratioP1;P1;durP2;ratioP2;P2;SDS_P1;SDS_P2;PMS_P1;PMS_P2;Temp;Humidity;BMP_temperature;BMP_pressure;BME280_temperature;BME280_humidity;BME280_pressure;Samples;Min_cycle;Max_cycle;Signal;HPM_P1;HPM_P2
2022/08/09 00:00:20;;;;;;;4.10;2.40;;;;;;;16.11;72.29;101965.70;107232;1281;62158;-82
2022/08/09 00:02:47;;;;;;;6.00;3.20;;;;;;;16.08;72.79;101964.33;107150;1282;59740;-83
2022/08/09 00:05:17;;;;;;;5.20;2.30;;;;;;;16.04;72.94;101958.20;107015;1282;75975;-83
2022/08/09 00:08:05;;;;;;;3.80;2.30;;;;;;;16.00;73.11;101955.77;107381;1281;73511;-82
2022/08/09 00:10:37;;;;;;;4.20;2.30;;;;;;;15.97;73.20;101953.23;107065;1282;74003;-82
2022/08/09 00:13:05;;;;;;;4.00;2.30;;;;;;;15.96;73.27;101956.10;106969;1282;62302;-82
2022/08/09 00:15:45;;;;;;;4.00;2.20;;;;;;;15.94;73.58;101955.77;107137;1279;61543;-83
2022/08/09 00:18:28;;;;;;;3.90;2.40;;;;;;;15.92;73.84;101956.55;107282;1281;75323;-83
2022/08/09 00:20:55;;;;;;;4.80;2.80;;;;;;;15.89;73.93;101956.31;107095;1282;71659;-83
2022/08/09 00:23:23;;;;;;;4.80;2.50;;;;;;;15.86;74.02;101956.62;107230;1280;73867;-83
2022/08/09 00:26:11;;;;;;;5.50;2.70;;;;;;;15.83;74.27;101954.70;107523;1282;64408;-83
2022/08/09 00:28:40;;;;;;;4.30;2.40;;;;;;;15.81;74.45;101954.60;107126;1282;59282;-86
2022/08/09 00:31:10;;;;;;;4.60;2.60;;;;;;;15.77;74.80;101955.74;107186;1282;76455;-83
2022/08/09 00:33:57;;;;;;;4.80;2.70;;;;;;;15.73;75.28;101949.81;107246;1281;73206;-83
2022/08/09 00:36:28;;;;;;;6.10;2.50;;;;;;;15.69;75.33;101952.19;107360;1281;72586;-82
2022/08/09 00:38:57;;;;;;;4.80;2.60;;;;;;;15.66;75.44;101952.17;106984;1282;63133;-82
2022/08/09 00:41:24;;;;;;;6.90;2.80;;;;;;;15.64;75.45;101957.36;107163;1282;61259;-82
2022/08/09 00:44:12;;;;;;;4.20;2.50;;;;;;;15.62;75.44;101957.08;107007;1282;75975;-83
2022/08/09 00:46:54;;;;;;;4.80;2.60;;;;;;;15.58;75.56;101958.31;107015;1283;71289;-82
2022/08/09 00:49:30;;;;;;;5.00;3.00;;;;;;;15.52;75.75;101959.81;107045;1281;72897;-82
2022/08/09 00:51:57;;;;;;;4.20;2.60;;;;;;;15.47;75.77;101956.67;107125;1282;62201;-82
2022/08/09 00:54:35;;;;;;;5.60;2.70;;;;;;;15.43;75.94;101961.98;107113;1282;61928;-82
2022/08/09 00:57:03;;;;;;;4.80;2.40;;;;;;;15.39;76.02;101960.09;107156;1284;76335;-81
2022/08/09 00:59:40;;;;;;;4.00;2.60;;;;;;;15.35;76.15;101958.70;106960;1282;71447;-82
2022/08/09 01:02:20;;;;;;;5.50;3.00;;;;;;;15.32;76.32;101957.56;107103;1281;74277;-82
2022/08/09 01:05:04;;;;;;;6.10;2.80;;;;;;;15.28;76.54;101954.59;106855;1282;62761;-82
2022/08/09 01:07:48;;;;;;;4.60;2.70;;;;;;;15.24;76.96;101957.52;107046;1281;61296;-82
2022/08/09 01:10:40;;;;;;;6.00;3.00;;;;;;;15.21;76.91;101957.59;107070;1282;74629;-82
2022/08/09 01:13:18;;;;;;;5.20;2.90;;;;;;;15.17;77.63;101954.45;106943;1281;70660;-82
2022/08/09 01:15:51;;;;;;;5.40;2.90;;;;;;;15.13;77.96;101961.16;107014;1282;73458;-82
2022/08/09 01:18:28;;;;;;;5.90;2.80;;;;;;;15.09;78.05;101959.23;107054;1282;62295;-83
2022/08/09 01:21:18;;;;;;;4.10;3.00;;;;;;;15.06;78.22;101960.25;107058;1281;61242;-82
2022/08/09 01:24:01;;;;;;;5.90;2.80;;;;;;;15.03;78.76;101959.73;106849;1283;75962;-81
2022/08/09 01:26:46;;;;;;;6.00;3.00;;;;;;;15.01;78.76;101961.14;107014;1282;71334;-82
2022/08/09 01:29:28;;;;;;;5.60;3.00;;;;;;;15.00;79.15;101965.80;107342;1281;73170;-81
2022/08/09 01:32:17;;;;;;;6.60;3.10;;;;;;;14.97;79.19;101960.76;107091;1282;62243;-80
2022/08/09 01:35:03;;;;;;;5.40;3.20;;;;;;;14.95;79.68;101962.40;106871;1282;61714;-81
2022/08/09 01:37:44;;;;;;;4.40;2.90;;;;;;;14.93;79.90;101965.82;107365;1282;74977;-81
2022/08/09 01:40:34;;;;;;;5.50;2.90;;;;;;;14.90;80.24;101963.33;106922;1282;73719;-81
2022/08/09 01:43:04;;;;;;;7.60;3.10;;;;;;;14.87;79.97;101962.32;106940;1282;72770;-81
2022/08/09 01:45:33;;;;;;;5.30;3.20;;;;;;;14.87;80.16;101961.53;106999;1284;61954;-81
2022/08/09 01:48:13;;;;;;;5.20;3.20;;;;;;;14.85;80.22;101960.83;107070;1283;61454;-81
2022/08/09 01:50:47;;;;;;;5.20;3.10;;;;;;;14.84;80.20;101964.48;107148;1282;75435;-81
2022/08/09 01:53:22;;;;;;;5.90;2.90;;;;;;;14.84;80.29;101962.98;107141;1282;71535;-81
2022/08/09 01:56:02;;;;;;;5.90;3.20;;;;;;;14.82;80.37;101965.79;107128;1283;73056;-81
2022/08/09 01:58:31;;;;;;;5.50;3.00;;;;;;;14.81;80.39;101963.78;107216;1281;62248;-82
2022/08/09 02:00:59;;;;;;;4.00;2.80;;;;;;;14.80;80.36;101961.29;106948;1282;61610;-82
2022/08/09 02:03:29;;;;;;;5.80;3.20;;;;;;;14.78;80.34;101957.39;107161;1281;75002;-82
2022/08/09 02:06:00;;;;;;;5.90;3.20;;;;;;;14.77;80.59;101954.48;107054;1282;71098;-82
2022/08/09 02:08:35;;;;;;;5.20;3.30;;;;;;;14.74;80.47;101947.10;107168;1282;73146;-81
2022/08/09 02:11:26;;;;;;;4.90;3.00;;;;;;;14.72;80.85;101951.09;107546;1282;65881;-82
2022/08/09 02:14:14;;;;;;;5.60;3.10;;;;;;;14.69;80.79;101954.77;107061;1283;58964;-81
2022/08/09 02:16:53;;;;;;;5.10;3.10;;;;;;;14.68;80.84;101952.94;106833;1281;74356;-82
2022/08/09 02:19:41;;;;;;;4.60;2.90;;;;;;;14.67;80.96;101952.91;107204;1282;73711;-83
2022/08/09 02:22:31;;;;;;;4.40;2.80;;;;;;;14.66;80.96;101951.06;106892;1283;73016;-82
2022/08/09 02:25:06;;;;;;;5.50;3.10;;;;;;;14.65;80.87;101956.25;107110;1282;62564;-81
2022/08/09 02:27:35;;;;;;;6.50;3.00;;;;;;;14.63;80.80;101954.91;106817;1284;61621;-81
2022/08/09 02:30:23;;;;;;;4.60;3.10;;;;;;;14.63;80.92;101956.40;106877;1283;76928;-82
2022/08/09 02:32:54;;;;;;;5.40;3.00;;;;;;;14.61;80.92;101956.43;107160;1282;71349;-81
2022/08/09 02:35:24;;;;;;;5.30;3.00;;;;;;;14.58;80.84;101956.61;107346;1281;72909;-81
2022/08/09 02:38:12;;;;;;;5.00;3.00;;;;;;;14.54;81.10;101953.72;106905;1281;60829;-81
2022/08/09 02:41:00;;;;;;;5.40;3.10;;;;;;;14.53;81.19;101959.75;107036;1284;60589;-81
2022/08/09 02:43:30;;;;;;;4.30;3.10;;;;;;;14.52;81.25;101954.95;107079;1282;75352;-81
2022/08/09 02:46:18;;;;;;;5.50;3.20;;;;;;;14.51;81.33;101953.81;107255;1280;74708;-83
2022/08/09 02:48:46;;;;;;;5.70;3.30;;;;;;;14.48;81.23;101951.08;107273;1282;72981;-83
2022/08/09 02:51:19;;;;;;;5.30;3.40;;;;;;;14.44;81.33;101950.92;107012;1284;61987;-82
2022/08/09 02:53:50;;;;;;;6.20;3.90;;;;;;;14.43;81.45;101950.37;107191;1282;60592;-82
2022/08/09 02:56:29;;;;;;;5.20;3.30;;;;;;;14.41;81.40;101952.84;107117;1282;74949;-82
2022/08/09 02:58:58;;;;;;;5.90;3.30;;;;;;;14.40;81.54;101954.23;107406;1282;72490;-82
2022/08/09 03:01:26;;;;;;;5.50;3.20;;;;;;;14.39;81.49;101952.11;107164;1281;72958;-82
2022/08/09 03:03:56;;;;;;;5.40;3.30;;;;;;;14.36;81.36;101955.58;107152;1282;61956;-82
2022/08/09 03:06:43;;;;;;;6.00;3.50;;;;;;;14.33;81.49;101961.61;107094;1282;63141;-82
2022/08/09 03:09:12;;;;;;;6.60;3.40;;;;;;;14.30;81.70;101961.63;107165;1280;75110;-81
2022/08/09 03:11:40;;;;;;;5.70;3.40;;;;;;;14.26;81.95;101960.89;107284;1280;72444;-81
2022/08/09 03:14:30;;;;;;;7.20;3.50;;;;;;;14.23;81.89;101958.59;107077;1282;76527;-82
2022/08/09 03:16:59;;;;;;;3.80;3.10;;;;;;;14.19;81.81;101960.05;107145;1282;63791;-82
2022/08/09 03:19:30;;;;;;;5.00;3.60;;;;;;;14.16;82.05;101961.73;107125;1280;62933;-82
2022/08/09 03:22:19;;;;;;;7.50;3.60;;;;;;;14.11;82.11;101966.28;107239;1282;76868;-81
2022/08/09 03:24:58;;;;;;;7.60;3.70;;;;;;;14.07;82.14;101965.48;106870;1282;71110;-81
2022/08/09 03:27:49;;;;;;;4.90;3.60;;;;;;;14.04;82.41;101966.66;106785;1282;72663;-81
2022/08/09 03:30:17;;;;;;;5.90;3.30;;;;;;;14.02;82.27;101967.63;107190;1284;61962;-81
2022/08/09 03:33:04;;;;;;;5.20;3.50;;;;;;;13.99;82.63;101968.17;107174;1282;60605;-82
2022/08/09 03:35:44;;;;;;;5.30;3.50;;;;;;;13.95;82.50;101972.90;107133;1284;75170;-81
2022/08/09 03:38:32;;;;;;;5.70;3.60;;;;;;;13.90;82.53;101969.15;107097;1281;72957;-80
2022/08/09 03:40:59;;;;;;;6.70;3.70;;;;;;;13.85;82.82;101971.06;107215;1282;74218;-81
2022/08/09 03:43:29;;;;;;;7.40;3.90;;;;;;;13.80;82.92;101966.98;106920;1282;62978;-82
2022/08/09 03:45:59;;;;;;;5.20;3.70;;;;;;;13.77;83.18;101966.39;107673;1280;60662;-81
2022/08/09 03:48:51;;;;;;;5.90;3.90;;;;;;;13.76;83.29;101961.75;107081;1284;74814;-81
2022/08/09 03:51:21;;;;;;;6.10;3.80;;;;;;;13.74;83.52;101958.95;107296;1281;72436;-81
2022/08/09 03:54:13;;;;;;;7.20;3.60;;;;;;;13.72;83.93;101962.14;106926;1282;75341;-82
2022/08/09 03:56:43;;;;;;;5.90;4.00;;;;;;;13.72;84.01;101962.38;107126;1282;62202;-81
2022/08/09 03:59:13;;;;;;;6.50;4.10;;;;;;;13.71;83.91;101960.00;107393;1281;60673;-81
2022/08/09 04:01:57;;;;;;;5.10;4.20;;;;;;;13.70;84.07;101962.34;107200;1280;76582;-82
2022/08/09 04:04:26;;;;;;;5.50;4.00;;;;;;;13.70;84.07;101958.77;107112;1281;72777;-81
2022/08/09 04:07:02;;;;;;;7.20;3.90;;;;;;;13.70;84.27;101960.56;107141;1282;73083;-81
2022/08/09 04:09:30;;;;;;;6.10;3.90;;;;;;;13.72;84.41;101966.48;106831;1282;62079;-81
2022/08/09 04:12:15;;;;;;;8.00;4.50;;;;;;;13.71;84.50;101968.84;106926;1282;62124;-81
2022/08/09 04:15:02;;;;;;;6.60;4.20;;;;;;;13.71;84.63;101970.27;106946;1282;75752;-81
2022/08/09 04:17:49;;;;;;;6.10;4.00;;;;;;;13.72;84.77;101975.51;107075;1282;73653;-81
2022/08/09 04:20:17;;;;;;;5.70;3.80;;;;;;;13.74;84.74;101976.66;106921;1284;72960;-82
2022/08/09 04:22:45;;;;;;;6.20;4.00;;;;;;;13.76;84.79;101975.58;107110;1281;63243;-81
2022/08/09 04:25:13;;;;;;;5.20;3.90;;;;;;;13.79;84.89;101979.35;106751;1282;60490;-80
2022/08/09 04:27:40;;;;;;;6.70;4.20;;;;;;;13.81;84.98;101981.59;107207;1281;74538;-81
2022/08/09 04:30:14;;;;;;;6.20;3.90;;;;;;;13.84;84.76;101982.77;107106;1282;72238;-81
2022/08/09 04:32:41;;;;;;;6.40;3.70;;;;;;;13.86;84.88;101982.79;107279;1281;72998;-81
2022/08/09 04:35:12;;;;;;;7.10;3.90;;;;;;;13.89;84.89;101983.27;106950;1284;61414;-81
2022/08/09 04:37:41;;;;;;;5.40;4.10;;;;;;;13.90;84.88;101986.21;107128;1281;60707;-82
2022/08/09 04:40:13;;;;;;;7.50;4.10;;;;;;;13.94;85.15;101993.27;106736;1282;75649;-82
2022/08/09 04:42:45;;;;;;;5.90;3.90;;;;;;;13.98;85.12;101994.55;107426;1282;72501;-81
2022/08/09 04:45:15;;;;;;;6.90;4.00;;;;;;;14.03;85.01;101998.67;107120;1282;73011;-81
2022/08/09 04:47:46;;;;;;;7.10;4.60;;;;;;;14.08;85.13;101996.45;106874;1282;62063;-81
2022/08/09 04:50:30;;;;;;;6.70;3.80;;;;;;;14.16;85.03;102001.77;107148;1282;60640;-81
2022/08/09 04:53:06;;;;;;;7.20;4.10;;;;;;;14.21;84.92;102002.27;107011;1282;76258;-81
2022/08/09 04:55:40;;;;;;;7.00;4.20;;;;;;;14.24;84.82;102004.56;107043;1282;73135;-81
2022/08/09 04:58:25;;;;;;;6.00;3.70;;;;;;;14.30;84.75;102015.17;107179;1282;74057;-81
2022/08/09 05:00:52;;;;;;;5.70;3.90;;;;;;;14.34;84.81;102014.40;107226;1281;62469;-81
2022/08/09 05:03:21;;;;;;;6.10;3.50;;;;;;;14.39;84.75;102017.61;107079;1282;60381;-81
2022/08/09 05:06:09;;;;;;;7.90;4.10;;;;;;;14.43;84.55;102019.10;107258;1282;76428;-81
2022/08/09 05:08:37;;;;;;;5.30;3.70;;;;;;;14.47;84.42;102015.80;106750;1284;72391;-81
2022/08/09 05:11:07;;;;;;;6.00;3.90;;;;;;;14.52;84.22;102017.77;107048;1282;73415;-81
2022/08/09 05:13:35;;;;;;;5.70;3.40;;;;;;;14.57;84.00;102019.46;107023;1282;62221;-81
2022/08/09 05:16:07;;;;;;;7.70;4.00;;;;;;;14.64;84.14;102015.88;107045;1282;61630;-81
2022/08/09 05:18:37;;;;;;;7.70;3.80;;;;;;;14.73;83.83;102017.81;107084;1282;74995;-81
2022/08/09 05:21:24;;;;;;;4.60;3.60;;;;;;;14.82;83.57;102020.12;107023;1282;74537;-81
2022/08/09 05:24:02;;;;;;;5.70;3.70;;;;;;;14.91;83.03;102019.48;107067;1282;74727;-81
2022/08/09 05:26:31;;;;;;;4.60;3.30;;;;;;;14.97;82.73;102020.95;106757;1282;61352;-82
2022/08/09 05:29:18;;;;;;;7.40;3.80;;;;;;;15.03;82.53;102025.03;107046;1282;62492;-81
2022/08/09 05:31:49;;;;;;;6.60;3.40;;;;;;;15.12;82.43;102026.95;107032;1284;74955;-82
2022/08/09 05:34:27;;;;;;;4.40;3.40;;;;;;;15.18;82.17;102022.14;107132;1282;71427;-81
2022/08/09 05:36:58;;;;;;;6.50;3.50;;;;;;;15.20;81.73;102022.17;107063;1282;72784;-81
2022/08/09 05:39:28;;;;;;;6.90;3.50;;;;;;;15.23;81.70;102021.59;107283;1281;62418;-81
2022/08/09 05:42:09;;;;;;;5.40;3.30;;;;;;;15.29;81.41;102025.42;107232;1282;61309;-81
2022/08/09 05:44:48;;;;;;;7.40;3.70;;;;;;;15.35;81.31;102022.01;106960;1284;76267;-81
2022/08/09 05:47:18;;;;;;;4.70;3.20;;;;;;;15.47;81.06;102021.39;107129;1282;71425;-81
2022/08/09 05:49:52;;;;;;;5.70;3.10;;;;;;;15.63;81.04;102026.39;106862;1282;72717;-81
2022/08/09 05:52:40;;;;;;;6.60;3.20;;;;;;;15.82;80.81;102031.65;107238;1282;63966;-82
2022/08/09 05:55:09;;;;;;;6.20;3.50;;;;;;;16.00;80.12;102032.11;107279;1282;61432;-82
2022/08/09 05:57:46;;;;;;;7.30;3.20;;;;;;;16.17;79.43;102037.27;107037;1282;73906;-82
2022/08/09 06:00:29;;;;;;;7.00;3.50;;;;;;;16.33;79.02;102035.08;107079;1281;71011;-81
2022/08/09 06:03:00;;;;;;;6.40;2.90;;;;;;;16.49;78.46;102039.39;107128;1282;74159;-81
2022/08/09 06:05:28;;;;;;;5.20;2.70;;;;;;;16.64;77.88;102042.96;106861;1282;62032;-81
2022/08/09 06:08:16;;;;;;;6.30;3.20;;;;;;;16.79;77.24;102049.33;106892;1282;62706;-81
2022/08/09 06:10:52;;;;;;;6.60;3.30;;;;;;;16.93;76.97;102047.46;106947;1282;75221;-81
2022/08/09 06:13:19;;;;;;;5.20;3.10;;;;;;;17.08;76.44;102040.32;107189;1282;70240;-81
2022/08/09 06:15:48;;;;;;;6.10;3.00;;;;;;;17.22;75.87;102042.38;107153;1282;73152;-81
2022/08/09 06:18:21;;;;;;;4.80;2.80;;;;;;;17.38;75.60;102044.05;106976;1282;62329;-82
2022/08/09 06:20:55;;;;;;;5.10;2.80;;;;;;;17.52;74.77;102048.49;107256;1282;61838;-81
2022/08/09 06:23:25;;;;;;;7.20;3.10;;;;;;;17.66;74.38;102050.60;107393;1282;75391;-81
2022/08/09 06:26:13;;;;;;;4.70;2.70;;;;;;;17.81;73.42;102046.45;107166;1282;73893;-82
2022/08/09 06:28:40;;;;;;;6.30;2.70;;;;;;;17.94;73.00;102048.22;107309;1282;73061;-82
2022/08/09 06:31:09;;;;;;;7.20;2.60;;;;;;;18.08;72.39;102052.41;107134;1282;62272;-82
2022/08/09 06:33:37;;;;;;;8.10;2.80;;;;;;;18.23;71.94;102054.52;107090;1282;59980;-82
2022/08/09 06:36:08;;;;;;;6.80;2.40;;;;;;;18.37;71.46;102052.05;107012;1282;75384;-82
2022/08/09 06:38:39;;;;;;;5.80;2.50;;;;;;;18.52;71.17;102053.95;107314;1282;71249;-82
2022/08/09 06:41:17;;;;;;;4.80;2.40;;;;;;;18.67;70.25;102051.45;107012;1282;73208;-83
2022/08/09 06:43:47;;;;;;;4.30;2.30;;;;;;;18.81;69.75;102056.18;107051;1281;62160;-82
2022/08/09 06:46:15;;;;;;;6.10;2.40;;;;;;;18.87;68.61;102055.15;106924;1282;61157;-83
2022/08/09 06:49:02;;;;;;;7.40;2.10;;;;;;;18.99;68.36;102061.23;107013;1281;77519;-83
2022/08/09 06:51:29;;;;;;;5.70;2.10;;;;;;;19.11;68.02;102062.25;107127;1282;71406;-83
2022/08/09 06:53:57;;;;;;;6.00;2.30;;;;;;;19.24;67.77;102063.73;107168;1282;74048;-82
2022/08/09 06:56:27;;;;;;;8.00;2.40;;;;;;;19.37;67.45;102062.59;107061;1282;62526;-83
2022/08/09 06:58:57;;;;;;;4.20;2.10;;;;;;;19.55;67.40;102061.88;107352;1282;60508;-83
2022/08/09 07:01:45;;;;;;;6.60;2.80;;;;;;;19.71;66.17;102063.33;107025;1284;77737;-82
2022/08/09 07:04:29;;;;;;;6.10;2.00;;;;;;;19.81;65.28;102062.61;106892;1282;71356;-83
2022/08/09 07:06:58;;;;;;;3.90;2.00;;;;;;;19.93;64.90;102059.70;107021;1282;73974;-84
2022/08/09 07:09:27;;;;;;;5.60;1.80;;;;;;;20.06;63.93;102060.17;107167;1282;62291;-84
2022/08/09 07:12:14;;;;;;;4.70;1.70;;;;;;;20.22;64.14;102062.11;107583;1282;62586;-83
2022/08/09 07:14:47;;;;;;;4.50;1.90;;;;;;;20.37;63.26;102068.77;106905;1282;76063;-83
2022/08/09 07:17:20;;;;;;;5.70;1.60;;;;;;;20.55;63.12;102069.02;107010;1284;72745;-83
2022/08/09 07:19:48;;;;;;;4.80;1.70;;;;;;;20.66;61.08;102067.41;106921;1283;72968;-83
2022/08/09 07:22:22;;;;;;;6.70;1.50;;;;;;;20.80;61.19;102064.29;106868;1284;63469;-83
2022/08/09 07:25:09;;;;;;;3.70;1.50;;;;;;;20.95;59.73;102066.91;106915;1284;61310;-83
2022/08/09 07:27:40;;;;;;;4.00;1.40;;;;;;;21.10;59.65;102069.80;107046;1282;76654;-84
2022/08/09 07:30:12;;;;;;;3.80;1.60;;;;;;;21.24;59.14;102070.25;106855;1283;71713;-83
2022/08/09 07:32:40;;;;;;;3.60;1.50;;;;;;;21.38;58.82;102069.05;106910;1284;74253;-83
2022/08/09 07:35:10;;;;;;;5.40;1.50;;;;;;;21.45;57.31;102068.52;107053;1284;62293;-83
2022/08/09 07:37:42;;;;;;;5.10;1.70;;;;;;;21.50;57.14;102067.90;107105;1281;59991;-84
2022/08/09 07:40:16;;;;;;;5.40;1.40;;;;;;;21.64;57.05;102067.52;106936;1284;74975;-83
2022/08/09 07:42:57;;;;;;;4.30;1.30;;;;;;;21.81;56.96;102068.08;106951;1283;72640;-83
2022/08/09 07:45:27;;;;;;;5.50;1.80;;;;;;;22.06;56.97;102061.34;106831;1284;73358;-83
2022/08/09 07:48:08;;;;;;;3.40;1.30;;;;;;;22.25;55.54;102065.91;107015;1283;61398;-83
2022/08/09 07:50:55;;;;;;;6.00;1.50;;;;;;;22.34;54.49;102062.43;106996;1284;60616;-83
2022/08/09 07:53:42;;;;;;;5.20;1.50;;;;;;;22.48;54.58;102064.20;106998;1284;76417;-84
2022/08/09 07:56:32;;;;;;;4.90;1.20;;;;;;;22.63;54.04;102059.82;106898;1283;69968;-86
2022/08/09 07:58:59;;;;;;;4.20;1.40;;;;;;;22.72;53.80;102062.48;106889;1284;72824;-83
2022/08/09 08:01:26;;;;;;;6.10;1.40;;;;;;;22.87;53.27;102055.23;107226;1283;61737;-84
2022/08/09 08:04:01;;;;;;;5.00;1.70;;;;;;;23.00;53.31;102057.21;106819;1284;60665;-84
2022/08/09 08:06:29;;;;;;;8.10;1.60;;;;;;;23.14;52.97;102056.62;107241;1284;75802;-84
2022/08/09 08:08:59;;;;;;;5.30;1.60;;;;;;;23.28;52.16;102053.09;107066;1284;73160;-84
2022/08/09 08:11:33;;;;;;;4.40;1.40;;;;;;;23.40;51.58;102047.89;107045;1282;72800;-84
2022/08/09 08:14:20;;;;;;;3.90;1.20;;;;;;;23.51;51.20;102047.75;107116;1284;63449;-84
2022/08/09 08:16:51;;;;;;;5.40;1.40;;;;;;;23.61;50.49;102046.83;106924;1284;59926;-84
2022/08/09 08:19:34;;;;;;;4.80;1.40;;;;;;;23.69;49.82;102047.55;107142;1284;76224;-84
2022/08/09 08:22:01;;;;;;;3.40;1.20;;;;;;;23.81;50.03;102045.58;106759;1283;71616;-84
2022/08/09 08:24:28;;;;;;;3.10;1.20;;;;;;;23.97;49.68;102042.55;106825;1284;74016;-83
2022/08/09 08:27:07;;;;;;;3.80;1.50;;;;;;;24.11;48.95;102045.30;106935;1284;62308;-83
2022/08/09 08:29:44;;;;;;;5.10;1.40;;;;;;;24.24;48.27;102050.92;107008;1284;62465;-84
2022/08/09 08:32:16;;;;;;;5.10;1.30;;;;;;;24.23;46.09;102049.61;107098;1284;76564;-83
2022/08/09 08:34:55;;;;;;;4.60;1.40;;;;;;;24.20;46.27;102047.11;106759;1284;71485;-84
2022/08/09 08:37:26;;;;;;;4.10;1.40;;;;;;;24.28;47.14;102053.26;106827;1283;73741;-83
2022/08/09 08:40:13;;;;;;;4.00;1.30;;;;;;;24.40;46.40;102054.53;106768;1283;62899;-83
2022/08/09 08:42:44;;;;;;;3.10;1.50;;;;;;;24.45;45.17;102057.05;107117;1284;60344;-83
2022/08/09 08:45:13;;;;;;;3.30;1.50;;;;;;;24.51;45.54;102063.31;106637;1284;76319;-83
2022/08/09 08:47:42;;;;;;;2.90;1.40;;;;;;;24.62;45.17;102063.22;106983;1283;72277;-83
2022/08/09 08:50:14;;;;;;;2.40;1.30;;;;;;;24.71;44.93;102063.68;107087;1283;74168;-83
2022/08/09 08:52:44;;;;;;;3.70;1.50;;;;;;;24.76;44.20;102066.08;106978;1284;61370;-83
2022/08/09 08:55:26;;;;;;;3.20;1.70;;;;;;;24.75;43.41;102069.29;107160;1284;61076;-83
2022/08/09 08:57:56;;;;;;;6.10;1.40;;;;;;;24.77;43.47;102067.00;106866;1284;76338;-84
2022/08/09 09:00:26;;;;;;;4.00;1.50;;;;;;;24.87;44.39;102067.36;107142;1284;71852;-83
2022/08/09 09:03:01;;;;;;;3.60;1.40;;;;;;;24.96;42.99;102065.98;106982;1284;73927;-85
2022/08/09 09:05:43;;;;;;;3.70;1.50;;;;;;;25.04;43.33;102067.16;106671;1284;62632;-84
2022/08/09 09:08:34;;;;;;;4.20;1.50;;;;;;;25.15;42.47;102065.41;106822;1284;61170;-84
2022/08/09 09:11:10;;;;;;;2.80;1.40;;;;;;;25.32;43.05;102065.09;107270;1284;75333;-84
2022/08/09 09:13:47;;;;;;;2.80;1.50;;;;;;;25.47;42.47;102063.86;106987;1284;72137;-84
2022/08/09 09:16:29;;;;;;;3.80;1.10;;;;;;;25.59;41.82;102063.84;107066;1284;73636;-84
2022/08/09 09:19:04;;;;;;;3.00;1.30;;;;;;;25.67;41.04;102064.02;107136;1282;61367;-84
2022/08/09 09:22:09;;;;;;;4.20;1.30;;;;;;;25.73;41.14;102065.34;107201;1282;60220;-84
2022/08/09 09:24:45;;;;;;;3.90;1.30;;;;;;;25.84;41.34;102065.52;106840;1281;75576;-84
2022/08/09 09:27:19;;;;;;;3.30;1.10;;;;;;;25.98;41.32;102071.66;107260;1282;71108;-84
2022/08/09 09:30:12;;;;;;;4.60;1.30;;;;;;;26.16;41.39;102068.10;107171;1282;75183;-84
2022/08/09 09:33:07;;;;;;;2.80;1.20;;;;;;;26.34;40.32;102071.05;106991;1281;62235;-84
2022/08/09 09:35:55;;;;;;;3.20;1.20;;;;;;;26.26;38.64;102071.58;107111;1282;60555;-84
2022/08/09 09:38:58;;;;;;;2.50;1.30;;;;;;;26.18;39.27;102070.73;106993;1282;76367;-84
2022/08/09 09:41:27;;;;;;;3.20;1.20;;;;;;;26.19;39.51;102066.61;107222;1281;71865;-85
2022/08/09 09:44:22;;;;;;;3.50;1.30;;;;;;;26.21;39.50;102066.43;107254;1282;74167;-84
2022/08/09 09:47:05;;;;;;;3.50;1.30;;;;;;;26.17;39.37;102067.95;107467;1281;61318;-84
2022/08/09 09:49:32;;;;;;;4.40;1.30;;;;;;;26.27;39.61;102071.77;107128;1282;61937;-84
2022/08/09 09:52:19;;;;;;;1.90;1.10;;;;;;;26.41;39.57;102068.52;106997;1282;74621;-85
2022/08/09 09:55:08;;;;;;;4.10;1.50;;;;;;;26.49;39.12;102069.55;107220;1284;72681;-84
2022/08/09 09:57:58;;;;;;;3.10;1.20;;;;;;;26.52;38.67;102064.86;107012;1283;73075;-84
2022/08/09 10:00:30;;;;;;;3.20;1.20;;;;;;;26.63;39.20;102064.19;107066;1281;60693;-84
2022/08/09 10:02:59;;;;;;;2.30;1.00;;;;;;;26.78;38.67;102064.30;106963;1282;61841;-84
2022/08/09 10:05:56;;;;;;;3.80;1.20;;;;;;;26.94;38.23;102066.85;106958;1282;75950;-84
2022/08/09 10:08:30;;;;;;;2.60;1.20;;;;;;;27.11;38.07;102059.84;107179;1282;70817;-84
2022/08/09 10:10:57;;;;;;;3.80;1.30;;;;;;;27.23;38.28;102060.65;107030;1282;73173;-84
2022/08/09 10:13:36;;;;;;;2.50;1.30;;;;;;;27.30;37.38;102054.53;106782;1282;60689;-84
2022/08/09 10:16:09;;;;;;;2.10;1.00;;;;;;;27.29;37.32;102053.29;107220;1282;61101;-83
2022/08/09 10:19:02;;;;;;;2.30;1.10;;;;;;;27.37;37.06;102051.13;107115;1282;76847;-83
2022/08/09 10:21:30;;;;;;;2.00;1.30;;;;;;;27.49;37.15;102053.44;107127;1282;71853;-84
2022/08/09 10:24:00;;;;;;;2.70;1.20;;;;;;;27.57;36.81;102054.34;106984;1282;74575;-84
2022/08/09 10:26:30;;;;;;;2.60;1.40;;;;;;;27.61;36.76;102054.39;107028;1282;60673;-85
2022/08/09 10:28:57;;;;;;;3.00;1.40;;;;;;;27.55;36.33;102050.40;107260;1282;61114;-85
2022/08/09 10:31:44;;;;;;;3.00;1.30;;;;;;;27.57;36.64;102050.75;107096;1282;76772;-83
2022/08/09 10:34:31;;;;;;;3.30;1.20;;;;;;;27.76;36.22;102043.90;107037;1282;71180;-84
2022/08/09 10:37:01;;;;;;;3.50;1.40;;;;;;;27.97;36.53;102045.02;107060;1282;72935;-85
2022/08/09 10:39:28;;;;;;;3.70;1.40;;;;;;;28.10;35.81;102045.33;107240;1282;60278;-84
2022/08/09 10:42:07;;;;;;;3.90;1.40;;;;;;;28.11;35.58;102040.60;107189;1282;60890;-84
2022/08/09 10:44:37;;;;;;;3.70;1.30;;;;;;;28.20;35.97;102033.84;107089;1282;76105;-85
2022/08/09 10:47:37;;;;;;;2.20;1.30;;;;;;;28.24;35.17;102030.66;107486;1282;71486;-85
2022/08/09 10:51:05;;;;;;;2.10;1.30;;;;;;;28.32;35.47;102031.25;107214;1282;74200;-86
2022/08/09 10:53:37;;;;;;;3.50;1.60;;;;;;;28.46;35.47;102033.59;107032;1282;59606;-84
2022/08/09 10:56:15;;;;;;;2.70;1.30;;;;;;;28.60;35.10;102045.23;107309;1282;59920;-84
2022/08/09 10:58:50;;;;;;;2.70;1.30;;;;;;;28.77;35.62;102045.55;107522;1280;75725;-84
2022/08/09 11:01:32;;;;;;;4.00;1.40;;;;;;;29.04;34.90;102042.41;107279;1282;71466;-85
2022/08/09 11:04:21;;;;;;;2.10;1.20;;;;;;;29.28;33.95;102035.86;105919;1281;73275;-85
2022/08/09 11:06:58;;;;;;;3.80;1.30;;;;;;;29.52;33.64;102036.95;107299;1282;60507;-85
2022/08/09 11:09:42;;;;;;;3.00;1.20;;;;;;;29.67;32.65;102036.38;107123;1282;61695;-84
2022/08/09 11:12:16;;;;;;;4.80;1.30;;;;;;;29.77;32.29;102037.46;107174;1282;74883;-84
2022/08/09 11:14:53;;;;;;;3.30;1.20;;;;;;;29.85;31.91;102040.27;107081;1282;71503;-85
2022/08/09 11:17:23;;;;;;;2.70;1.40;;;;;;;29.88;31.56;102037.30;107097;1283;72685;-85
2022/08/09 11:20:07;;;;;;;3.80;1.50;;;;;;;29.93;31.75;102040.80;106745;1284;61204;-84
2022/08/09 11:22:47;;;;;;;3.30;1.20;;;;;;;29.91;31.78;102040.30;107081;1282;62477;-84
2022/08/09 11:25:35;;;;;;;2.60;1.40;;;;;;;30.01;32.05;102035.98;107038;1284;75116;-85
2022/08/09 11:28:35;;;;;;;3.60;1.50;;;;;;;30.17;31.96;102039.16;106776;1284;71452;-85
2022/08/09 11:31:43;;;;;;;2.20;1.30;;;;;;;30.10;30.65;102039.44;106973;1284;71735;-84
2022/08/09 11:34:38;;;;;;;2.60;1.40;;;;;;;30.09;31.20;102040.80;106989;1284;61439;-84
2022/08/09 11:37:10;;;;;;;3.10;1.60;;;;;;;30.08;30.86;102037.15;106916;1284;60095;-84
2022/08/09 11:40:04;;;;;;;3.10;1.30;;;;;;;29.87;30.32;102035.05;107205;1282;75476;-84
2022/08/09 11:43:00;;;;;;;6.20;1.20;;;;;;;29.61;30.56;102036.91;106933;1283;72442;-85
2022/08/09 11:45:30;;;;;;;2.70;1.30;;;;;;;29.86;31.87;102031.17;106509;1284;73856;-84
2022/08/09 11:48:20;;;;;;;2.20;1.20;;;;;;;30.19;31.49;102028.81;106945;1283;61739;-84
2022/08/09 11:50:55;;;;;;;2.60;1.40;;;;;;;30.53;30.66;102025.61;106945;1283;60529;-84
2022/08/09 11:53:43;;;;;;;4.10;1.50;;;;;;;30.86;30.55;102024.25;107035;1283;76416;-84
2022/08/09 11:56:29;;;;;;;3.60;1.20;;;;;;;31.15;30.09;102019.70;106965;1284;72487;-84
2022/08/09 11:59:10;;;;;;;2.70;1.30;;;;;;;31.33;29.85;102020.05;106743;1282;75487;-84
2022/08/09 12:01:41;;;;;;;3.90;1.20;;;;;;;31.54;29.17;102009.70;106627;1284;60338;-85